Launceston Airport, Tasmania

9:56 PM AEST on August 30, 2015 (GMT +1000)
South Launceston | | Change Station
CLOSE
Current Station
Personal Weather Station
Location: South Launceston, TASMANIA
Elevation: 377 ft
Nearby Weather Stations

Elev 377 ft 41.46 °S, 147.15 °E | Updated 14 minutes ago

Scattered Clouds
Scattered Clouds
42.8 °F
Feels Like 37 °F
N
9.4
Wind Variable Wind from ESE

Today
High -- | Low -- °F
--% Chance of Precip.
Yesterday
High -- | Low -- °F
Precip. -- in
6:40 AM 5:44 PM
Full, 99% visible
Pressure 30.21 in
Visibility 6.2 miles
Clouds Scattered Clouds 2700 ft
Windchill 37 °F
Dew Point 37 °F
Humidity 80%
Rainfall 0.00 in
Snow Depth Not available.
UV 0 out of 12
Pollen Not available.
Air Quality Not available.
Flu Activity Not available.
METAR YMLT 301130Z AUTO 15010KT 9999 // SCT027 05/02 Q1023
Pressure 30.21 in
Visibility 6.2 miles
Clouds Scattered Clouds 2700 ft
Windchill 37 °F
Dew Point 37 °F
Humidity 80%
Rainfall 0.00 in
Snow Depth Not available.
UV 0 out of 12
Pollen Not available.
Air Quality Not available.
Flu Activity Not available.
METAR YMLT 301130Z AUTO 15010KT 9999 // SCT027 05/02 Q1023

10-Day Weather Forecast

×

Almanac

Astronomy

Aug. 30, 2015 Rise Set
Actual Time
Civil Twilight
Nautical Twilight
Astronomical Twilight
Moon
Length of Visible Light
Length of Day
Tomorrow will be .
, % of the Moon is Illuminated

Today's Extremes

Country Highs Country Lows

Community

WunderPhotos

Upload Photos

1,850,930 photos uploaded!

WunderBlogs® & News

Nearby

Air Quality

  Air Quality AQ Index Pollutant
Not available.

Snow Depth

Station Depth Elevation

Earthquake Activity

City Distance Mag. Time & Date
Minimum magnitude displayed is 2.5.

Coastal Water Temperatures

Place Temperature

Stations

Nearby Weather Stations

Station Location Temp. Windchill Dew Point Humidity Wind Precip. Elev Updated Type